DW2802 Ogijares ES current weather conditions

sailwx.info

Wind from 249 at 10 knots gusting 18

Air temperature 10.6° C
Dewpoint 9.3° C

Last reported at 2015-Jan-31 05:40 UTC.
Time now 2015-Jan-31 07:07 UTC

Location: N 37°07' W 003°36'.
View on Google Maps.

See reports from other nearby stations

  
Tides and Currents Weather Stations Pressure Air Temp Water Temp Dewpoint Dewpoint Depression Visibility Wind Speed Wind Dir Waves Ship Positions
date/time (UTC)wind fromknots sea level pressurealtimeterstation pressurevisibilityair tempwater tempwave heightnotes
2015-Jan-31 05:40 249 10 gusting 18 10.6
2015-Jan-31 05:25 262 8 gusting 15 10.0
2015-Jan-31 05:10 221 4 gusting 19 10.6
2015-Jan-31 04:55 240 7 gusting 16 10.0
2015-Jan-31 04:40 244 2 gusting 13 10.0
2015-Jan-31 04:24 256 11 gusting 22 10.0
2015-Jan-31 04:09 231 7 gusting 19 10.0
2015-Jan-31 03:54 205 4 gusting 10 10.0
2015-Jan-31 03:39 209 10.0
2015-Jan-31 03:24 209 4 gusting 14 10.0
2015-Jan-31 03:09 240 4 gusting 18 10.0
2015-Jan-31 02:54 147 4 gusting 12 10.0
2015-Jan-31 02:39 211 0 gusting 6 10.0
2015-Jan-31 02:24 167 2 gusting 6 10.0
2015-Jan-31 02:09 210 5 gusting 7 10.0
2015-Jan-31 01:54 201 4 gusting 6 10.0
2015-Jan-31 01:39 189 0 gusting 5 10.0
2015-Jan-31 01:24 225 1 gusting 6 10.0
2015-Jan-31 01:09 226 1 gusting 6 10.6
2015-Jan-31 00:54 228 10.6
2015-Jan-31 00:39 214 4 gusting 8 10.6
2015-Jan-31 00:24 213 0 gusting 5 10.6
2015-Jan-31 00:09 262 10.6
2015-Jan-30 23:54 277 10.6
2015-Jan-30 23:39 277 10.6
2015-Jan-30 23:24 281 10.6
2015-Jan-30 23:09 281 3 gusting 10 10.6
2015-Jan-30 22:54 329 10.6
2015-Jan-30 22:39 329 10.6
2015-Jan-30 22:24 329 0 gusting 10 10.6
2015-Jan-30 22:09 305 7 gusting 17 10.6
2015-Jan-30 21:54 288 5 gusting 12 10.6
2015-Jan-30 21:39 275 10.6
2015-Jan-30 21:24 314 10.6
2015-Jan-30 21:08 285 2 gusting 6 10.6
2015-Jan-30 20:53 288 10.6
2015-Jan-30 20:38 288 1 gusting 6 11.1
2015-Jan-30 20:23 266 10.6
2015-Jan-30 20:08 240 1 gusting 7 11.1
2015-Jan-30 19:53 271 5 gusting 7 11.1
2015-Jan-30 19:38 293 0 gusting 6 10.6
2015-Jan-30 19:23 022 3 gusting 7 11.1
2015-Jan-30 19:08 342 2 gusting 9 10.6
2015-Jan-30 18:53 323 4 gusting 12 10.6
2015-Jan-30 18:38 315 4 gusting 12 10.6
2015-Jan-30 18:23 316 3 gusting 10 10.6
2015-Jan-30 18:08 295 6 gusting 10 10.6
2015-Jan-30 17:53 275 10.6
2015-Jan-30 17:38 322 1 gusting 7 10.6
2015-Jan-30 17:23 305 3 gusting 10 10.6
2015-Jan-30 17:08 232 6 gusting 11 10.6
2015-Jan-30 16:53 259 1 gusting 5 10.6
2015-Jan-30 16:38 266 0 gusting 7 10.6
2015-Jan-30 16:23 294 6 gusting 14 10.6
2015-Jan-30 16:08 306 4 gusting 10 10.0
2015-Jan-30 15:53 293 10.0
2015-Jan-30 15:38 305 1 gusting 6 10.0
2015-Jan-30 15:23 281 1 gusting 7 10.0
2015-Jan-30 15:08 301 0 gusting 6 10.0
2015-Jan-30 14:52 329 10.0
2015-Jan-30 14:37 329 0 gusting 5 10.0
2015-Jan-30 14:22 314 3 gusting 7 10.0
2015-Jan-30 14:07 294 10.0
2015-Jan-30 13:52 355 3 gusting 5 10.0
2015-Jan-30 13:37 332 1 gusting 10 10.0
2015-Jan-30 13:22 309 1 gusting 8 10.0
2015-Jan-30 13:07 313 2 gusting 6 10.0
2015-Jan-30 12:52 296 10.0
2015-Jan-30 12:37 289 0 gusting 4 10.0
2015-Jan-30 12:22 262 3 gusting 7 10.0
2015-Jan-30 12:07 045 1 gusting 4 10.0
2015-Jan-30 11:52 071 10.0
2015-Jan-30 11:37 094 6 gusting 10 10.0
2015-Jan-30 11:22 018 10.0
2015-Jan-30 11:07 018 10.0
2015-Jan-30 10:52 030 3 gusting 12 10.0
2015-Jan-30 10:37 024 5 gusting 8 9.4
2015-Jan-30 10:22 022 4 gusting 8 9.4
2015-Jan-30 10:07 027 5 gusting 10 9.4
2015-Jan-30 09:52 044 6 gusting 11 8.9
2015-Jan-30 09:37 053 3 gusting 5 8.9
2015-Jan-30 09:22 045 1 gusting 6 8.9
2015-Jan-30 09:07 304 8.9
2015-Jan-30 08:52 304 8.9
2015-Jan-30 08:37 304 8.3
2015-Jan-30 08:22 304 0 gusting 4 8.3
2015-Jan-30 08:07 317 1 gusting 4 8.3
2015-Jan-30 07:52 322 3 gusting 5 8.3
2015-Jan-30 07:37 296 0 gusting 4 8.3
2015-Jan-30 07:22 304 0 gusting 3 8.3
2015-Jan-30 07:07 360 8.3
2015-Jan-30 06:52 360 8.3
2015-Jan-30 06:37 360 8.3
2015-Jan-30 06:22 052 8.3
2015-Jan-30 06:07 052 8.3
2015-Jan-30 05:52 053 8.3
2015-Jan-30 05:37 052 8.3
2015-Jan-30 05:22 053 0 gusting 4 8.3
2015-Jan-30 05:07 053 8.3
2015-Jan-30 04:52 071 1 gusting 4 8.3
2015-Jan-30 04:37 022 0 gusting 3 8.3
2015-Jan-30 04:22 019 0 gusting 4 8.3
2015-Jan-30 04:06 018 8.3
2015-Jan-30 03:51 022 1 gusting 6 8.3
2015-Jan-30 03:36 005 1 gusting 6 8.9
2015-Jan-30 03:21 023 2 gusting 5 8.9
2015-Jan-30 03:06 342 2 gusting 8 8.9
2015-Jan-30 02:51 024 6 gusting 11 8.9
2015-Jan-30 02:36 051 8.9
2015-Jan-30 02:21 056 2 gusting 5 8.9
2015-Jan-30 02:06 040 2 gusting 4 8.9
2015-Jan-30 01:51 325 8.9
2015-Jan-30 01:36 325 8.9
2015-Jan-30 01:21 325 0 gusting 6 8.9
2015-Jan-30 01:06 323 0 gusting 9 8.9
2015-Jan-30 00:51 291 2 gusting 6 8.9
2015-Jan-30 00:36 289 8.9
2015-Jan-30 00:21 065 8.9
2015-Jan-30 00:06 074 0 gusting 4 8.9
2015-Jan-29 23:51 042 8.9
2015-Jan-29 23:36 038 8.9
2015-Jan-29 23:21 136 8.3
2015-Jan-29 23:06 135 8.3
2015-Jan-29 22:51 135 8.3
2015-Jan-29 22:36 146 8.3
2015-Jan-29 22:21 178 8.3
2015-Jan-29 22:06 178 8.3
2015-Jan-29 21:51 178 8.3
2015-Jan-29 21:36 168 8.3
2015-Jan-29 21:21 181 7.8
2015-Jan-29 21:06 290 7.8
2015-Jan-29 20:51 290 7.8
2015-Jan-29 20:36 290 7.8
2015-Jan-29 20:21 290 7.8
2015-Jan-29 20:06 290 7.8
2015-Jan-29 19:51 288 2 gusting 6 8.3
2015-Jan-29 19:36 287 2 gusting 7 8.3
2015-Jan-29 19:21 284 2 gusting 6 8.3
2015-Jan-29 19:06 029 0 gusting 4 8.3
2015-Jan-29 18:51 053 2 gusting 4 8.3
2015-Jan-29 18:36 302 4 gusting 8 8.3
2015-Jan-29 18:21 322 2 gusting 6 8.9
2015-Jan-29 18:06 298 8.9
2015-Jan-29 17:51 298 8.9
2015-Jan-29 17:36 298 3 gusting 8 8.9
2015-Jan-29 17:21 308 4 gusting 9 9.4
2015-Jan-29 17:06 299 6 gusting 13 9.4
2015-Jan-29 16:51 300 6 gusting 12 10.0
2015-Jan-29 16:37 302 6 gusting 12 10.0
2015-Jan-29 16:21 270 7 gusting 12 10.6
2015-Jan-29 16:06 302 6 gusting 12 11.1
2015-Jan-29 15:51 327 6 gusting 11 11.1
2015-Jan-29 15:36 290 5 gusting 11 10.6
2015-Jan-29 15:21 286 6 gusting 9 11.1
2015-Jan-29 15:05 355 3 gusting 7 11.1
2015-Jan-29 14:50 302 1 gusting 6 11.1
2015-Jan-29 14:35 343 2 gusting 7 11.7
2015-Jan-29 14:20 013 5 gusting 7 11.7
2015-Jan-29 14:05 029 3 gusting 6 11.1
2015-Jan-29 13:50 009 0 gusting 7 10.6
2015-Jan-29 13:35 313 10.0
2015-Jan-29 13:20 350 5 gusting 8 9.4
2015-Jan-29 13:05 319 5 gusting 9 9.4
2015-Jan-29 12:50 317 5 gusting 8 9.4
2015-Jan-29 12:35 014 9.4
2015-Jan-29 12:20 015 8.9
2015-Jan-29 12:05 029 8.3
2015-Jan-29 11:50 029 0 gusting 4 7.8
2015-Jan-29 11:35 034 2 gusting 5 7.2
2015-Jan-29 11:20 355 3 gusting 5 6.7
2015-Jan-29 11:05 322 3 gusting 6 6.1
2015-Jan-29 10:50 298 3 gusting 6 6.1
2015-Jan-29 10:35 314 6.1
2015-Jan-29 10:20 314 5.6
2015-Jan-29 10:05 005 5.6
2015-Jan-29 09:50 005 0 gusting 2 5.0
2015-Jan-29 09:34 005 3.9
2015-Jan-29 09:19 005 0 gusting 3 3.3
2015-Jan-29 09:04 010 2 gusting 7 3.3
2015-Jan-29 08:49 241 3.3
2015-Jan-29 08:34 240 2 gusting 4 2.8
2015-Jan-29 08:19 114 1 gusting 3 2.2
2015-Jan-29 08:04 091 1 gusting 3 1.7
2015-Jan-29 07:49 091 0 gusting 2 1.1
2015-Jan-29 07:34 091 2 gusting 5 1.1
2015-Jan-29 07:19 074 0 gusting 2 1.1
2015-Jan-29 07:04 074 1.1